sensor_id;sensor_type;location;lat;lon;timestamp;P1;durP1;ratioP1;P2;durP2;ratioP2
84484;SDS011;74707;42.864;0.362;2024-01-27T00:00:09;6.53;;;1.98;;
84484;SDS011;74707;42.864;0.362;2024-01-27T00:02:36;3.55;;;2.03;;
84484;SDS011;74707;42.864;0.362;2024-01-27T00:05:02;3.42;;;1.90;;
84484;SDS011;74707;42.864;0.362;2024-01-27T00:07:28;4.47;;;1.73;;
84484;SDS011;74707;42.864;0.362;2024-01-27T00:09:55;2.95;;;2.00;;
84484;SDS011;74707;42.864;0.362;2024-01-27T00:12:21;2.45;;;1.70;;
84484;SDS011;74707;42.864;0.362;2024-01-27T00:14:47;4.78;;;1.50;;
84484;SDS011;74707;42.864;0.362;2024-01-27T00:17:13;4.35;;;1.95;;
84484;SDS011;74707;42.864;0.362;2024-01-27T00:19:40;4.88;;;1.83;;
84484;SDS011;74707;42.864;0.362;2024-01-27T00:22:07;3.88;;;1.48;;
84484;SDS011;74707;42.864;0.362;2024-01-27T00:24:33;4.10;;;1.77;;
84484;SDS011;74707;42.864;0.362;2024-01-27T00:26:59;3.63;;;2.08;;
84484;SDS011;74707;42.864;0.362;2024-01-27T00:29:26;3.65;;;1.75;;
84484;SDS011;74707;42.864;0.362;2024-01-27T00:31:52;5.18;;;1.98;;
84484;SDS011;74707;42.864;0.362;2024-01-27T00:34:19;2.95;;;1.55;;
84484;SDS011;74707;42.864;0.362;2024-01-27T00:36:46;4.22;;;1.55;;
84484;SDS011;74707;42.864;0.362;2024-01-27T00:39:17;2.78;;;1.55;;
84484;SDS011;74707;42.864;0.362;2024-01-27T00:41:44;3.22;;;2.58;;
84484;SDS011;74707;42.864;0.362;2024-01-27T00:44:10;2.03;;;1.35;;
84484;SDS011;74707;42.864;0.362;2024-01-27T00:46:36;2.60;;;1.42;;
84484;SDS011;74707;42.864;0.362;2024-01-27T00:49:03;3.15;;;1.60;;
84484;SDS011;74707;42.864;0.362;2024-01-27T00:51:29;2.50;;;1.50;;
84484;SDS011;74707;42.864;0.362;2024-01-27T00:53:55;2.00;;;1.38;;
84484;SDS011;74707;42.864;0.362;2024-01-27T00:56:21;2.38;;;1.30;;
84484;SDS011;74707;42.864;0.362;2024-01-27T00:58:47;2.90;;;1.70;;
84484;SDS011;74707;42.864;0.362;2024-01-27T01:01:14;3.28;;;1.40;;
84484;SDS011;74707;42.864;0.362;2024-01-27T01:03:40;4.05;;;1.30;;
84484;SDS011;74707;42.864;0.362;2024-01-27T01:06:06;3.00;;;1.73;;
84484;SDS011;74707;42.864;0.362;2024-01-27T01:08:32;6.45;;;1.58;;
84484;SDS011;74707;42.864;0.362;2024-01-27T01:10:58;8.02;;;1.65;;
84484;SDS011;74707;42.864;0.362;2024-01-27T01:13:24;1.83;;;1.33;;
84484;SDS011;74707;42.864;0.362;2024-01-27T01:15:50;1.65;;;1.23;;
84484;SDS011;74707;42.864;0.362;2024-01-27T01:18:17;2.20;;;1.65;;
84484;SDS011;74707;42.864;0.362;2024-01-27T01:20:43;3.33;;;1.30;;
84484;SDS011;74707;42.864;0.362;2024-01-27T01:23:09;2.15;;;1.40;;
84484;SDS011;74707;42.864;0.362;2024-01-27T01:25:35;2.38;;;1.15;;
84484;SDS011;74707;42.864;0.362;2024-01-27T01:28:01;1.45;;;1.10;;
84484;SDS011;74707;42.864;0.362;2024-01-27T01:30:28;1.58;;;1.10;;
84484;SDS011;74707;42.864;0.362;2024-01-27T01:32:54;1.67;;;1.30;;
84484;SDS011;74707;42.864;0.362;2024-01-27T01:35:20;1.90;;;1.50;;
84484;SDS011;74707;42.864;0.362;2024-01-27T01:37:47;3.58;;;1.42;;
84484;SDS011;74707;42.864;0.362;2024-01-27T01:40:13;3.55;;;1.55;;
84484;SDS011;74707;42.864;0.362;2024-01-27T01:42:40;4.15;;;1.42;;
84484;SDS011;74707;42.864;0.362;2024-01-27T01:45:07;5.20;;;1.63;;
84484;SDS011;74707;42.864;0.362;2024-01-27T01:47:34;4.35;;;1.50;;
84484;SDS011;74707;42.864;0.362;2024-01-27T01:50:00;3.75;;;1.90;;
84484;SDS011;74707;42.864;0.362;2024-01-27T01:52:27;2.40;;;1.00;;
84484;SDS011;74707;42.864;0.362;2024-01-27T01:54:53;2.55;;;1.05;;
84484;SDS011;74707;42.864;0.362;2024-01-27T01:57:19;3.55;;;1.42;;
84484;SDS011;74707;42.864;0.362;2024-01-27T01:59:45;2.72;;;1.25;;
84484;SDS011;74707;42.864;0.362;2024-01-27T02:02:12;3.83;;;1.65;;
84484;SDS011;74707;42.864;0.362;2024-01-27T02:04:39;3.65;;;1.75;;
84484;SDS011;74707;42.864;0.362;2024-01-27T02:07:05;4.10;;;1.38;;
84484;SDS011;74707;42.864;0.362;2024-01-27T02:09:31;1.50;;;1.00;;
84484;SDS011;74707;42.864;0.362;2024-01-27T02:11:58;2.20;;;1.02;;
84484;SDS011;74707;42.864;0.362;2024-01-27T02:14:24;2.42;;;1.20;;
84484;SDS011;74707;42.864;0.362;2024-01-27T02:16:52;2.15;;;1.23;;
84484;SDS011;74707;42.864;0.362;2024-01-27T02:19:18;2.72;;;1.10;;
84484;SDS011;74707;42.864;0.362;2024-01-27T02:21:44;5.00;;;1.33;;
84484;SDS011;74707;42.864;0.362;2024-01-27T02:24:11;3.75;;;1.45;;
84484;SDS011;74707;42.864;0.362;2024-01-27T02:26:37;2.30;;;0.85;;
84484;SDS011;74707;42.864;0.362;2024-01-27T02:29:03;1.83;;;0.80;;
84484;SDS011;74707;42.864;0.362;2024-01-27T02:31:29;1.40;;;0.85;;
84484;SDS011;74707;42.864;0.362;2024-01-27T02:33:55;1.65;;;0.80;;
84484;SDS011;74707;42.864;0.362;2024-01-27T02:36:21;2.65;;;0.90;;
84484;SDS011;74707;42.864;0.362;2024-01-27T02:38:47;2.30;;;1.10;;
84484;SDS011;74707;42.864;0.362;2024-01-27T02:41:14;1.15;;;0.70;;
84484;SDS011;74707;42.864;0.362;2024-01-27T02:43:40;1.52;;;1.17;;
84484;SDS011;74707;42.864;0.362;2024-01-27T02:46:12;2.42;;;1.08;;
84484;SDS011;74707;42.864;0.362;2024-01-27T02:48:40;1.27;;;1.10;;
84484;SDS011;74707;42.864;0.362;2024-01-27T02:51:10;1.48;;;1.08;;
84484;SDS011;74707;42.864;0.362;2024-01-27T02:53:36;0.68;;;0.60;;
84484;SDS011;74707;42.864;0.362;2024-01-27T02:56:02;3.35;;;1.58;;
84484;SDS011;74707;42.864;0.362;2024-01-27T02:58:32;1.65;;;0.75;;
84484;SDS011;74707;42.864;0.362;2024-01-27T03:00:58;2.42;;;1.00;;
84484;SDS011;74707;42.864;0.362;2024-01-27T03:03:24;1.50;;;0.90;;
84484;SDS011;74707;42.864;0.362;2024-01-27T03:05:50;2.10;;;1.38;;
84484;SDS011;74707;42.864;0.362;2024-01-27T03:08:17;1.50;;;0.80;;
84484;SDS011;74707;42.864;0.362;2024-01-27T03:10:43;1.20;;;1.00;;
84484;SDS011;74707;42.864;0.362;2024-01-27T03:13:09;2.58;;;0.70;;
84484;SDS011;74707;42.864;0.362;2024-01-27T03:15:35;3.53;;;0.60;;
84484;SDS011;74707;42.864;0.362;2024-01-27T03:18:02;2.70;;;0.80;;
84484;SDS011;74707;42.864;0.362;2024-01-27T03:20:29;1.35;;;0.80;;
84484;SDS011;74707;42.864;0.362;2024-01-27T03:22:58;1.63;;;0.80;;
84484;SDS011;74707;42.864;0.362;2024-01-27T03:25:24;1.63;;;0.70;;
84484;SDS011;74707;42.864;0.362;2024-01-27T03:27:51;1.05;;;0.55;;
84484;SDS011;74707;42.864;0.362;2024-01-27T03:30:17;0.73;;;0.50;;
84484;SDS011;74707;42.864;0.362;2024-01-27T03:32:43;1.25;;;1.15;;
84484;SDS011;74707;42.864;0.362;2024-01-27T03:35:09;0.93;;;0.63;;
84484;SDS011;74707;42.864;0.362;2024-01-27T03:37:35;0.85;;;0.60;;
84484;SDS011;74707;42.864;0.362;2024-01-27T03:40:02;0.85;;;0.63;;
84484;SDS011;74707;42.864;0.362;2024-01-27T03:42:28;1.55;;;0.70;;
84484;SDS011;74707;42.864;0.362;2024-01-27T03:44:54;4.22;;;0.68;;
84484;SDS011;74707;42.864;0.362;2024-01-27T03:47:20;3.33;;;0.70;;
84484;SDS011;74707;42.864;0.362;2024-01-27T03:49:46;0.90;;;0.57;;
84484;SDS011;74707;42.864;0.362;2024-01-27T03:52:12;2.05;;;1.02;;
84484;SDS011;74707;42.864;0.362;2024-01-27T03:54:39;1.00;;;0.80;;
84484;SDS011;74707;42.864;0.362;2024-01-27T03:57:05;0.70;;;0.60;;
84484;SDS011;74707;42.864;0.362;2024-01-27T03:59:31;0.50;;;0.50;;
84484;SDS011;74707;42.864;0.362;2024-01-27T04:01:57;2.15;;;0.77;;
84484;SDS011;74707;42.864;0.362;2024-01-27T04:04:23;0.77;;;0.45;;
84484;SDS011;74707;42.864;0.362;2024-01-27T04:06:50;1.42;;;0.65;;
84484;SDS011;74707;42.864;0.362;2024-01-27T04:09:16;2.08;;;0.40;;
84484;SDS011;74707;42.864;0.362;2024-01-27T04:11:42;1.40;;;0.57;;
84484;SDS011;74707;42.864;0.362;2024-01-27T04:14:08;0.55;;;0.40;;
84484;SDS011;74707;42.864;0.362;2024-01-27T04:16:34;1.67;;;0.65;;
84484;SDS011;74707;42.864;0.362;2024-01-27T04:19:01;0.43;;;0.43;;
84484;SDS011;74707;42.864;0.362;2024-01-27T04:21:27;0.70;;;0.70;;
84484;SDS011;74707;42.864;0.362;2024-01-27T04:23:53;1.23;;;0.45;;
84484;SDS011;74707;42.864;0.362;2024-01-27T04:26:19;0.60;;;0.60;;
84484;SDS011;74707;42.864;0.362;2024-01-27T04:28:45;0.50;;;0.47;;
84484;SDS011;74707;42.864;0.362;2024-01-27T04:31:11;0.95;;;0.43;;
84484;SDS011;74707;42.864;0.362;2024-01-27T04:33:37;0.75;;;0.43;;
84484;SDS011;74707;42.864;0.362;2024-01-27T04:36:04;1.58;;;0.50;;
84484;SDS011;74707;42.864;0.362;2024-01-27T04:38:32;1.00;;;0.40;;
84484;SDS011;74707;42.864;0.362;2024-01-27T04:40:58;2.60;;;0.60;;
84484;SDS011;74707;42.864;0.362;2024-01-27T04:43:24;0.30;;;0.30;;
84484;SDS011;74707;42.864;0.362;2024-01-27T04:45:50;0.35;;;0.30;;
84484;SDS011;74707;42.864;0.362;2024-01-27T04:48:16;0.63;;;0.40;;
84484;SDS011;74707;42.864;0.362;2024-01-27T04:50:42;0.40;;;0.40;;
84484;SDS011;74707;42.864;0.362;2024-01-27T04:53:09;1.42;;;0.30;;
84484;SDS011;74707;42.864;0.362;2024-01-27T04:55:35;0.38;;;0.30;;
84484;SDS011;74707;42.864;0.362;2024-01-27T04:58:01;1.25;;;0.30;;
84484;SDS011;74707;42.864;0.362;2024-01-27T05:00:27;0.65;;;0.43;;
84484;SDS011;74707;42.864;0.362;2024-01-27T05:02:53;1.23;;;0.43;;
84484;SDS011;74707;42.864;0.362;2024-01-27T05:05:20;0.20;;;0.20;;
84484;SDS011;74707;42.864;0.362;2024-01-27T05:07:46;0.45;;;0.38;;
84484;SDS011;74707;42.864;0.362;2024-01-27T05:10:14;0.30;;;0.30;;
84484;SDS011;74707;42.864;0.362;2024-01-27T05:12:40;0.22;;;0.22;;
84484;SDS011;74707;42.864;0.362;2024-01-27T05:15:07;0.60;;;0.50;;
84484;SDS011;74707;42.864;0.362;2024-01-27T05:17:33;0.98;;;0.50;;
84484;SDS011;74707;42.864;0.362;2024-01-27T05:19:59;0.20;;;0.20;;
84484;SDS011;74707;42.864;0.362;2024-01-27T05:22:29;0.20;;;0.20;;
84484;SDS011;74707;42.864;0.362;2024-01-27T05:24:55;0.30;;;0.30;;
84484;SDS011;74707;42.864;0.362;2024-01-27T05:27:21;2.75;;;0.20;;
84484;SDS011;74707;42.864;0.362;2024-01-27T05:29:47;0.20;;;0.20;;
84484;SDS011;74707;42.864;0.362;2024-01-27T05:32:13;0.25;;;0.20;;
84484;SDS011;74707;42.864;0.362;2024-01-27T05:34:39;0.30;;;0.30;;
84484;SDS011;74707;42.864;0.362;2024-01-27T05:37:05;0.47;;;0.47;;
84484;SDS011;74707;42.864;0.362;2024-01-27T05:39:32;0.30;;;0.30;;
84484;SDS011;74707;42.864;0.362;2024-01-27T05:41:59;0.30;;;0.30;;
84484;SDS011;74707;42.864;0.362;2024-01-27T05:44:25;0.43;;;0.32;;
84484;SDS011;74707;42.864;0.362;2024-01-27T05:46:51;0.45;;;0.20;;
84484;SDS011;74707;42.864;0.362;2024-01-27T05:49:17;0.20;;;0.20;;
84484;SDS011;74707;42.864;0.362;2024-01-27T05:51:43;0.28;;;0.28;;
84484;SDS011;74707;42.864;0.362;2024-01-27T05:54:09;0.20;;;0.20;;
84484;SDS011;74707;42.864;0.362;2024-01-27T05:56:39;0.93;;;0.28;;
84484;SDS011;74707;42.864;0.362;2024-01-27T05:59:06;0.30;;;0.20;;
84484;SDS011;74707;42.864;0.362;2024-01-27T06:01:32;1.02;;;0.30;;
84484;SDS011;74707;42.864;0.362;2024-01-27T06:03:58;0.30;;;0.30;;
84484;SDS011;74707;42.864;0.362;2024-01-27T06:06:24;0.22;;;0.20;;
84484;SDS011;74707;42.864;0.362;2024-01-27T06:08:50;0.38;;;0.30;;
84484;SDS011;74707;42.864;0.362;2024-01-27T06:11:23;0.20;;;0.20;;
84484;SDS011;74707;42.864;0.362;2024-01-27T06:13:50;0.20;;;0.10;;
84484;SDS011;74707;42.864;0.362;2024-01-27T06:16:17;0.20;;;0.20;;
84484;SDS011;74707;42.864;0.362;2024-01-27T06:18:48;0.10;;;0.10;;
84484;SDS011;74707;42.864;0.362;2024-01-27T06:21:14;0.38;;;0.30;;
84484;SDS011;74707;42.864;0.362;2024-01-27T06:23:40;0.10;;;0.10;;
84484;SDS011;74707;42.864;0.362;2024-01-27T06:26:06;0.38;;;0.30;;
84484;SDS011;74707;42.864;0.362;2024-01-27T06:28:32;0.20;;;0.20;;
84484;SDS011;74707;42.864;0.362;2024-01-27T06:31:00;3.80;;;0.35;;
84484;SDS011;74707;42.864;0.362;2024-01-27T06:33:26;0.20;;;0.20;;
84484;SDS011;74707;42.864;0.362;2024-01-27T06:35:53;0.20;;;0.20;;
84484;SDS011;74707;42.864;0.362;2024-01-27T06:38:19;0.20;;;0.20;;
84484;SDS011;74707;42.864;0.362;2024-01-27T06:40:45;0.20;;;0.20;;
84484;SDS011;74707;42.864;0.362;2024-01-27T06:43:12;0.22;;;0.20;;
84484;SDS011;74707;42.864;0.362;2024-01-27T06:45:38;0.20;;;0.10;;
84484;SDS011;74707;42.864;0.362;2024-01-27T06:48:05;0.65;;;0.13;;
84484;SDS011;74707;42.864;0.362;2024-01-27T06:50:32;0.20;;;0.20;;
84484;SDS011;74707;42.864;0.362;2024-01-27T06:52:58;0.82;;;0.20;;
84484;SDS011;74707;42.864;0.362;2024-01-27T06:55:24;0.15;;;0.15;;
84484;SDS011;74707;42.864;0.362;2024-01-27T06:57:51;1.02;;;0.50;;
84484;SDS011;74707;42.864;0.362;2024-01-27T07:00:17;0.10;;;0.10;;
84484;SDS011;74707;42.864;0.362;2024-01-27T07:02:43;0.10;;;0.10;;
84484;SDS011;74707;42.864;0.362;2024-01-27T07:05:09;1.55;;;0.25;;
84484;SDS011;74707;42.864;0.362;2024-01-27T07:07:37;0.32;;;0.30;;
84484;SDS011;74707;42.864;0.362;2024-01-27T07:10:04;4.47;;;0.20;;
84484;SDS011;74707;42.864;0.362;2024-01-27T07:12:32;0.20;;;0.20;;
84484;SDS011;74707;42.864;0.362;2024-01-27T07:14:58;0.22;;;0.22;;
84484;SDS011;74707;42.864;0.362;2024-01-27T07:17:27;1.63;;;0.20;;
84484;SDS011;74707;42.864;0.362;2024-01-27T07:19:53;0.30;;;0.20;;
84484;SDS011;74707;42.864;0.362;2024-01-27T07:22:19;0.30;;;0.20;;
84484;SDS011;74707;42.864;0.362;2024-01-27T07:24:45;0.10;;;0.10;;
84484;SDS011;74707;42.864;0.362;2024-01-27T07:27:12;0.85;;;0.30;;
84484;SDS011;74707;42.864;0.362;2024-01-27T07:29:38;0.15;;;0.15;;
84484;SDS011;74707;42.864;0.362;2024-01-27T07:32:05;1.42;;;0.45;;
84484;SDS011;74707;42.864;0.362;2024-01-27T07:34:33;0.20;;;0.20;;
84484;SDS011;74707;42.864;0.362;2024-01-27T07:36:59;0.10;;;0.10;;
84484;SDS011;74707;42.864;0.362;2024-01-27T07:39:26;0.20;;;0.20;;
84484;SDS011;74707;42.864;0.362;2024-01-27T07:41:52;1.95;;;0.17;;
84484;SDS011;74707;42.864;0.362;2024-01-27T07:44:18;0.10;;;0.10;;
84484;SDS011;74707;42.864;0.362;2024-01-27T07:46:44;0.10;;;0.10;;
84484;SDS011;74707;42.864;0.362;2024-01-27T07:49:10;0.45;;;0.20;;
84484;SDS011;74707;42.864;0.362;2024-01-27T07:51:38;0.10;;;0.10;;
84484;SDS011;74707;42.864;0.362;2024-01-27T07:54:04;1.40;;;0.28;;
84484;SDS011;74707;42.864;0.362;2024-01-27T07:56:30;0.20;;;0.20;;
84484;SDS011;74707;42.864;0.362;2024-01-27T07:58:56;0.75;;;0.20;;
84484;SDS011;74707;42.864;0.362;2024-01-27T08:01:22;1.80;;;0.40;;
84484;SDS011;74707;42.864;0.362;2024-01-27T08:03:49;0.13;;;0.13;;
84484;SDS011;74707;42.864;0.362;2024-01-27T08:06:18;0.10;;;0.10;;
84484;SDS011;74707;42.864;0.362;2024-01-27T08:08:47;0.20;;;0.20;;
84484;SDS011;74707;42.864;0.362;2024-01-27T08:11:14;0.20;;;0.20;;
84484;SDS011;74707;42.864;0.362;2024-01-27T08:13:41;0.10;;;0.10;;
84484;SDS011;74707;42.864;0.362;2024-01-27T08:16:07;0.10;;;0.10;;
84484;SDS011;74707;42.864;0.362;2024-01-27T08:18:41;0.20;;;0.20;;
84484;SDS011;74707;42.864;0.362;2024-01-27T08:21:10;0.10;;;0.10;;
84484;SDS011;74707;42.864;0.362;2024-01-27T08:23:37;0.10;;;0.10;;
84484;SDS011;74707;42.864;0.362;2024-01-27T08:26:03;0.20;;;0.20;;
84484;SDS011;74707;42.864;0.362;2024-01-27T08:28:29;0.28;;;0.13;;
84484;SDS011;74707;42.864;0.362;2024-01-27T08:30:55;0.20;;;0.20;;
84484;SDS011;74707;42.864;0.362;2024-01-27T08:33:22;0.35;;;0.30;;
84484;SDS011;74707;42.864;0.362;2024-01-27T08:35:48;0.20;;;0.20;;
84484;SDS011;74707;42.864;0.362;2024-01-27T08:38:14;0.25;;;0.25;;
84484;SDS011;74707;42.864;0.362;2024-01-27T08:40:40;0.20;;;0.20;;
84484;SDS011;74707;42.864;0.362;2024-01-27T08:43:07;0.77;;;0.20;;
84484;SDS011;74707;42.864;0.362;2024-01-27T08:45:35;0.47;;;0.20;;
84484;SDS011;74707;42.864;0.362;2024-01-27T08:48:01;0.28;;;0.28;;
84484;SDS011;74707;42.864;0.362;2024-01-27T08:50:27;0.20;;;0.20;;
84484;SDS011;74707;42.864;0.362;2024-01-27T08:52:53;0.30;;;0.30;;
84484;SDS011;74707;42.864;0.362;2024-01-27T08:55:19;0.13;;;0.13;;
84484;SDS011;74707;42.864;0.362;2024-01-27T08:57:48;0.40;;;0.20;;
84484;SDS011;74707;42.864;0.362;2024-01-27T09:00:15;0.28;;;0.28;;
84484;SDS011;74707;42.864;0.362;2024-01-27T09:02:44;0.30;;;0.30;;
84484;SDS011;74707;42.864;0.362;2024-01-27T09:05:11;0.20;;;0.20;;
84484;SDS011;74707;42.864;0.362;2024-01-27T09:07:37;0.20;;;0.20;;
84484;SDS011;74707;42.864;0.362;2024-01-27T09:10:04;0.10;;;0.10;;
84484;SDS011;74707;42.864;0.362;2024-01-27T09:12:30;0.10;;;0.10;;
84484;SDS011;74707;42.864;0.362;2024-01-27T09:14:56;0.43;;;0.38;;
84484;SDS011;74707;42.864;0.362;2024-01-27T09:17:22;0.15;;;0.10;;
84484;SDS011;74707;42.864;0.362;2024-01-27T09:19:48;0.32;;;0.10;;
84484;SDS011;74707;42.864;0.362;2024-01-27T09:22:15;1.17;;;0.20;;
84484;SDS011;74707;42.864;0.362;2024-01-27T09:24:41;0.25;;;0.10;;
84484;SDS011;74707;42.864;0.362;2024-01-27T09:27:07;0.10;;;0.10;;
84484;SDS011;74707;42.864;0.362;2024-01-27T09:29:33;0.55;;;0.17;;
84484;SDS011;74707;42.864;0.362;2024-01-27T09:31:59;0.10;;;0.10;;
84484;SDS011;74707;42.864;0.362;2024-01-27T09:34:25;0.10;;;0.10;;
84484;SDS011;74707;42.864;0.362;2024-01-27T09:36:52;1.85;;;0.40;;
84484;SDS011;74707;42.864;0.362;2024-01-27T09:39:18;0.20;;;0.20;;
84484;SDS011;74707;42.864;0.362;2024-01-27T09:41:44;1.45;;;0.22;;
84484;SDS011;74707;42.864;0.362;2024-01-27T09:44:11;1.23;;;0.50;;
84484;SDS011;74707;42.864;0.362;2024-01-27T09:46:38;1.02;;;0.28;;
84484;SDS011;74707;42.864;0.362;2024-01-27T09:49:04;0.70;;;0.20;;
84484;SDS011;74707;42.864;0.362;2024-01-27T09:51:30;0.00;;;0.00;;
84484;SDS011;74707;42.864;0.362;2024-01-27T09:53:57;0.00;;;0.00;;
84484;SDS011;74707;42.864;0.362;2024-01-27T09:56:23;0.10;;;0.10;;
84484;SDS011;74707;42.864;0.362;2024-01-27T09:58:50;0.10;;;0.10;;
84484;SDS011;74707;42.864;0.362;2024-01-27T10:01:20;0.05;;;0.05;;
84484;SDS011;74707;42.864;0.362;2024-01-27T10:03:47;0.03;;;0.03;;
84484;SDS011;74707;42.864;0.362;2024-01-27T10:06:13;0.17;;;0.00;;
84484;SDS011;74707;42.864;0.362;2024-01-27T10:08:43;0.10;;;0.10;;
84484;SDS011;74707;42.864;0.362;2024-01-27T10:11:13;0.17;;;0.10;;
84484;SDS011;74707;42.864;0.362;2024-01-27T10:13:40;0.10;;;0.10;;
84484;SDS011;74707;42.864;0.362;2024-01-27T10:16:08;0.10;;;0.10;;
84484;SDS011;74707;42.864;0.362;2024-01-27T10:18:37;0.10;;;0.10;;
84484;SDS011;74707;42.864;0.362;2024-01-27T10:21:13;0.10;;;0.10;;
84484;SDS011;74707;42.864;0.362;2024-01-27T10:23:39;0.05;;;0.05;;
84484;SDS011;74707;42.864;0.362;2024-01-27T10:26:08;0.35;;;0.10;;
84484;SDS011;74707;42.864;0.362;2024-01-27T10:28:34;0.13;;;0.10;;
84484;SDS011;74707;42.864;0.362;2024-01-27T10:31:10;2.92;;;0.10;;
84484;SDS011;74707;42.864;0.362;2024-01-27T10:33:36;0.08;;;0.08;;
84484;SDS011;74707;42.864;0.362;2024-01-27T10:36:02;0.40;;;0.10;;
84484;SDS011;74707;42.864;0.362;2024-01-27T10:38:38;0.05;;;0.05;;
84484;SDS011;74707;42.864;0.362;2024-01-27T10:41:07;0.00;;;0.00;;
84484;SDS011;74707;42.864;0.362;2024-01-27T10:43:35;0.90;;;0.15;;
84484;SDS011;74707;42.864;0.362;2024-01-27T10:46:02;0.00;;;0.00;;
84484;SDS011;74707;42.864;0.362;2024-01-27T10:48:29;0.00;;;0.00;;
84484;SDS011;74707;42.864;0.362;2024-01-27T10:50:56;0.35;;;0.17;;
84484;SDS011;74707;42.864;0.362;2024-01-27T10:53:24;0.00;;;0.00;;
84484;SDS011;74707;42.864;0.362;2024-01-27T10:55:53;0.63;;;0.10;;
84484;SDS011;74707;42.864;0.362;2024-01-27T10:58:21;0.10;;;0.10;;
84484;SDS011;74707;42.864;0.362;2024-01-27T11:00:48;0.10;;;0.10;;
84484;SDS011;74707;42.864;0.362;2024-01-27T11:03:16;0.45;;;0.10;;
84484;SDS011;74707;42.864;0.362;2024-01-27T11:05:45;1.95;;;0.10;;
84484;SDS011;74707;42.864;0.362;2024-01-27T11:08:12;0.10;;;0.10;;
84484;SDS011;74707;42.864;0.362;2024-01-27T11:10:39;0.05;;;0.05;;
84484;SDS011;74707;42.864;0.362;2024-01-27T11:13:05;0.00;;;0.00;;
84484;SDS011;74707;42.864;0.362;2024-01-27T11:15:33;0.10;;;0.10;;
84484;SDS011;74707;42.864;0.362;2024-01-27T11:17:59;0.03;;;0.03;;
84484;SDS011;74707;42.864;0.362;2024-01-27T11:20:27;2.55;;;0.10;;
84484;SDS011;74707;42.864;0.362;2024-01-27T11:22:53;0.00;;;0.00;;
84484;SDS011;74707;42.864;0.362;2024-01-27T11:25:22;0.10;;;0.10;;
84484;SDS011;74707;42.864;0.362;2024-01-27T11:27:48;0.00;;;0.00;;
84484;SDS011;74707;42.864;0.362;2024-01-27T11:30:26;1.38;;;0.10;;
84484;SDS011;74707;42.864;0.362;2024-01-27T11:32:54;0.30;;;0.10;;
84484;SDS011;74707;42.864;0.362;2024-01-27T11:35:20;0.32;;;0.00;;
84484;SDS011;74707;42.864;0.362;2024-01-27T11:37:47;0.17;;;0.17;;
84484;SDS011;74707;42.864;0.362;2024-01-27T11:40:13;0.00;;;0.00;;
84484;SDS011;74707;42.864;0.362;2024-01-27T11:42:40;0.10;;;0.10;;
84484;SDS011;74707;42.864;0.362;2024-01-27T11:45:09;0.20;;;0.10;;
84484;SDS011;74707;42.864;0.362;2024-01-27T11:47:36;0.52;;;0.13;;
84484;SDS011;74707;42.864;0.362;2024-01-27T11:50:02;0.85;;;0.40;;
84484;SDS011;74707;42.864;0.362;2024-01-27T11:52:28;1.25;;;0.10;;
84484;SDS011;74707;42.864;0.362;2024-01-27T11:54:55;0.10;;;0.10;;
84484;SDS011;74707;42.864;0.362;2024-01-27T11:57:21;0.10;;;0.10;;
84484;SDS011;74707;42.864;0.362;2024-01-27T11:59:47;0.10;;;0.10;;
84484;SDS011;74707;42.864;0.362;2024-01-27T12:02:13;0.88;;;0.13;;
84484;SDS011;74707;42.864;0.362;2024-01-27T12:04:40;0.20;;;0.20;;
84484;SDS011;74707;42.864;0.362;2024-01-27T12:07:06;1.10;;;0.15;;
84484;SDS011;74707;42.864;0.362;2024-01-27T12:09:32;0.68;;;0.35;;
84484;SDS011;74707;42.864;0.362;2024-01-27T12:11:58;0.57;;;0.40;;
84484;SDS011;74707;42.864;0.362;2024-01-27T12:14:25;0.65;;;0.20;;
84484;SDS011;74707;42.864;0.362;2024-01-27T12:16:51;1.02;;;0.45;;
84484;SDS011;74707;42.864;0.362;2024-01-27T12:19:18;0.43;;;0.40;;
84484;SDS011;74707;42.864;0.362;2024-01-27T12:21:48;0.73;;;0.43;;
84484;SDS011;74707;42.864;0.362;2024-01-27T12:24:17;0.20;;;0.10;;
84484;SDS011;74707;42.864;0.362;2024-01-27T12:26:44;0.20;;;0.00;;
84484;SDS011;74707;42.864;0.362;2024-01-27T12:29:10;0.10;;;0.10;;
84484;SDS011;74707;42.864;0.362;2024-01-27T12:31:37;0.00;;;0.00;;
84484;SDS011;74707;42.864;0.362;2024-01-27T12:34:03;0.25;;;0.10;;
84484;SDS011;74707;42.864;0.362;2024-01-27T12:36:29;0.10;;;0.10;;
84484;SDS011;74707;42.864;0.362;2024-01-27T12:41:21;0.13;;;0.10;;
84484;SDS011;74707;42.864;0.362;2024-01-27T12:43:47;0.00;;;0.00;;
84484;SDS011;74707;42.864;0.362;2024-01-27T12:46:14;0.10;;;0.10;;
84484;SDS011;74707;42.864;0.362;2024-01-27T12:48:41;0.30;;;0.05;;
84484;SDS011;74707;42.864;0.362;2024-01-27T12:51:08;0.22;;;0.20;;
84484;SDS011;74707;42.864;0.362;2024-01-27T12:53:34;0.32;;;0.22;;
84484;SDS011;74707;42.864;0.362;2024-01-27T12:56:00;0.30;;;0.10;;
84484;SDS011;74707;42.864;0.362;2024-01-27T12:58:26;0.80;;;0.43;;
84484;SDS011;74707;42.864;0.362;2024-01-27T13:00:52;0.22;;;0.20;;
84484;SDS011;74707;42.864;0.362;2024-01-27T13:03:18;0.20;;;0.10;;
84484;SDS011;74707;42.864;0.362;2024-01-27T13:05:45;0.40;;;0.28;;
84484;SDS011;74707;42.864;0.362;2024-01-27T13:08:11;1.20;;;0.85;;
84484;SDS011;74707;42.864;0.362;2024-01-27T13:10:37;4.45;;;1.77;;
84484;SDS011;74707;42.864;0.362;2024-01-27T13:13:03;2.05;;;1.60;;
84484;SDS011;74707;42.864;0.362;2024-01-27T13:15:30;0.20;;;0.20;;
84484;SDS011;74707;42.864;0.362;2024-01-27T13:17:56;2.83;;;1.40;;
84484;SDS011;74707;42.864;0.362;2024-01-27T13:20:22;9.57;;;2.00;;
84484;SDS011;74707;42.864;0.362;2024-01-27T13:22:48;1.55;;;0.95;;
84484;SDS011;74707;42.864;0.362;2024-01-27T13:25:14;5.82;;;0.98;;
84484;SDS011;74707;42.864;0.362;2024-01-27T13:27:40;0.43;;;0.40;;
84484;SDS011;74707;42.864;0.362;2024-01-27T13:30:07;9.35;;;5.68;;
84484;SDS011;74707;42.864;0.362;2024-01-27T13:32:34;5.00;;;2.80;;
84484;SDS011;74707;42.864;0.362;2024-01-27T13:35:00;0.45;;;0.40;;
84484;SDS011;74707;42.864;0.362;2024-01-27T13:37:26;0.32;;;0.32;;
84484;SDS011;74707;42.864;0.362;2024-01-27T13:42:24;0.98;;;0.50;;
84484;SDS011;74707;42.864;0.362;2024-01-27T13:44:50;0.85;;;0.52;;
84484;SDS011;74707;42.864;0.362;2024-01-27T13:47:16;1.90;;;1.42;;
84484;SDS011;74707;42.864;0.362;2024-01-27T13:49:43;5.15;;;3.60;;
84484;SDS011;74707;42.864;0.362;2024-01-27T13:52:09;2.00;;;1.60;;
84484;SDS011;74707;42.864;0.362;2024-01-27T13:54:36;1.98;;;0.50;;
84484;SDS011;74707;42.864;0.362;2024-01-27T13:57:02;1.85;;;0.32;;
84484;SDS011;74707;42.864;0.362;2024-01-27T13:59:28;3.10;;;1.88;;
84484;SDS011;74707;42.864;0.362;2024-01-27T14:01:55;3.83;;;1.67;;
84484;SDS011;74707;42.864;0.362;2024-01-27T14:04:24;1.08;;;0.85;;
84484;SDS011;74707;42.864;0.362;2024-01-27T14:06:51;0.38;;;0.28;;
84484;SDS011;74707;42.864;0.362;2024-01-27T14:09:18;0.55;;;0.55;;
84484;SDS011;74707;42.864;0.362;2024-01-27T14:11:44;0.77;;;0.52;;
84484;SDS011;74707;42.864;0.362;2024-01-27T14:14:10;0.68;;;0.40;;
84484;SDS011;74707;42.864;0.362;2024-01-27T14:16:36;1.00;;;0.40;;
84484;SDS011;74707;42.864;0.362;2024-01-27T14:19:02;0.50;;;0.20;;
84484;SDS011;74707;42.864;0.362;2024-01-27T14:21:29;1.50;;;0.30;;
84484;SDS011;74707;42.864;0.362;2024-01-27T14:23:55;1.08;;;0.30;;
84484;SDS011;74707;42.864;0.362;2024-01-27T14:26:29;0.20;;;0.20;;
84484;SDS011;74707;42.864;0.362;2024-01-27T14:28:55;0.30;;;0.17;;
84484;SDS011;74707;42.864;0.362;2024-01-27T14:31:21;0.00;;;0.00;;
84484;SDS011;74707;42.864;0.362;2024-01-27T14:33:47;0.30;;;0.03;;
84484;SDS011;74707;42.864;0.362;2024-01-27T14:36:14;0.10;;;0.10;;
84484;SDS011;74707;42.864;0.362;2024-01-27T14:38:40;0.20;;;0.10;;
84484;SDS011;74707;42.864;0.362;2024-01-27T14:41:09;1.55;;;0.20;;
84484;SDS011;74707;42.864;0.362;2024-01-27T14:43:38;0.32;;;0.20;;
84484;SDS011;74707;42.864;0.362;2024-01-27T14:46:05;0.10;;;0.10;;
84484;SDS011;74707;42.864;0.362;2024-01-27T14:48:31;0.30;;;0.20;;